Time;durP1;ratioP1;P1;durP2;ratioP2;P2;SDS_P1;SDS_P2;PMS_P1;PMS_P2;Temp;Humidity;BMP_temperature;BMP_pressure;BME280_temperature;BME280_humidity;BME280_pressure;Samples;Min_cycle;Max_cycle;Signal;HPM_P1;HPM_P2
2024/03/16 00:00:39;;;;;;;0.82;0.70;;;8.90;99.90;;;;;;5070390;28;20032;-76
2024/03/16 00:03:04;;;;;;;2.40;0.60;;;8.90;99.90;;;;;;5069958;28;20642;-77
2024/03/16 00:05:30;;;;;;;0.70;0.38;;;8.90;99.90;;;;;;5064313;28;20025;-77
2024/03/16 00:07:56;;;;;;;5.32;0.90;;;8.90;99.90;;;;;;5047097;28;20024;-77
2024/03/16 00:10:23;;;;;;;0.63;0.43;;;9.00;99.90;;;;;;5074136;28;20024;-77
2024/03/16 00:12:48;;;;;;;0.70;0.40;;;9.00;99.90;;;;;;5075741;28;20208;-78
2024/03/16 00:15:16;;;;;;;0.75;0.40;;;9.00;99.90;;;;;;5071607;28;20472;-77
2024/03/16 00:17:42;;;;;;;1.33;0.50;;;9.10;99.90;;;;;;5073759;28;20059;-77
2024/03/16 00:20:10;;;;;;;1.05;0.40;;;9.10;99.90;;;;;;5070487;28;20028;-77
2024/03/16 00:22:40;;;;;;;3.17;0.60;;;9.20;99.90;;;;;;5069981;28;20028;-77
2024/03/16 00:25:12;;;;;;;0.43;0.28;;;9.10;99.90;;;;;;5073574;28;20952;-77
2024/03/16 00:27:39;;;;;;;0.68;0.30;;;9.10;99.90;;;;;;5069288;28;20048;-77
2024/03/16 00:30:06;;;;;;;1.85;0.50;;;9.10;99.90;;;;;;5064278;28;20036;-76
2024/03/16 00:32:32;;;;;;;0.80;0.40;;;9.20;99.90;;;;;;5060705;28;20025;-77
2024/03/16 00:34:58;;;;;;;1.38;0.47;;;9.20;99.90;;;;;;5052130;28;20121;-77
2024/03/16 00:37:25;;;;;;;1.23;0.30;;;9.20;99.90;;;;;;5052768;28;20438;-77
2024/03/16 00:39:52;;;;;;;2.58;0.30;;;9.20;99.90;;;;;;5055115;28;20400;-78
2024/03/16 00:42:19;;;;;;;1.23;0.40;;;9.20;99.90;;;;;;5054706;28;20025;-78
2024/03/16 00:44:45;;;;;;;1.75;0.35;;;9.10;99.90;;;;;;5038616;28;20029;-77
2024/03/16 00:47:13;;;;;;;1.55;0.32;;;9.00;99.90;;;;;;5065545;28;20025;-77
2024/03/16 00:49:45;;;;;;;1.20;0.43;;;9.00;99.90;;;;;;5050103;28;20564;-77
2024/03/16 00:52:12;;;;;;;0.60;0.20;;;8.90;99.90;;;;;;5063908;28;20020;-78
2024/03/16 00:54:38;;;;;;;1.73;0.30;;;8.80;99.90;;;;;;5051457;28;20127;-79
2024/03/16 00:57:10;;;;;;;1.50;0.10;;;8.80;99.90;;;;;;5060496;28;20090;-78
2024/03/16 00:59:35;;;;;;;3.92;0.47;;;8.80;99.90;;;;;;5054639;28;20401;-78
2024/03/16 01:02:03;;;;;;;1.05;0.30;;;8.80;99.90;;;;;;5048838;28;20118;-77
2024/03/16 01:04:33;;;;;;;0.73;0.30;;;8.80;99.90;;;;;;5058921;28;20036;-77
2024/03/16 01:07:00;;;;;;;1.48;0.47;;;8.70;99.90;;;;;;5067304;28;20044;-77
2024/03/16 01:09:33;;;;;;;3.58;0.47;;;8.80;99.90;;;;;;5072899;28;20043;-77
2024/03/16 01:11:59;;;;;;;2.10;0.40;;;8.80;99.90;;;;;;5060723;28;20021;-77
2024/03/16 01:14:26;;;;;;;2.65;0.50;;;8.80;99.90;;;;;;5070468;28;20032;-77
2024/03/16 01:16:52;;;;;;;3.75;0.60;;;8.80;99.90;;;;;;5018454;28;20526;-78
2024/03/16 01:19:18;;;;;;;1.25;0.30;;;8.80;99.90;;;;;;5037305;28;20064;-78
2024/03/16 01:21:50;;;;;;;1.25;0.30;;;8.90;99.90;;;;;;5066839;28;20530;-78
2024/03/16 01:24:17;;;;;;;0.50;0.20;;;8.80;99.90;;;;;;5049128;28;20376;-77
2024/03/16 01:26:47;;;;;;;0.75;0.40;;;8.90;99.90;;;;;;5053597;28;20501;-77
2024/03/16 01:29:15;;;;;;;1.37;0.30;;;8.90;99.90;;;;;;5077377;28;20032;-76
2024/03/16 01:31:40;;;;;;;0.65;0.25;;;8.90;99.90;;;;;;5063937;28;20391;-77
2024/03/16 01:34:06;;;;;;;0.80;0.63;;;8.90;99.90;;;;;;5077988;28;20030;-77
2024/03/16 01:36:33;;;;;;;1.50;0.40;;;8.90;99.90;;;;;;5072639;28;20021;-77
2024/03/16 01:39:00;;;;;;;1.48;0.40;;;8.90;99.90;;;;;;5089024;28;20107;-77
2024/03/16 01:41:26;;;;;;;0.40;0.20;;;8.90;99.90;;;;;;5073701;28;20025;-77
2024/03/16 01:43:51;;;;;;;1.35;0.40;;;9.00;99.90;;;;;;5077970;28;20024;-77
2024/03/16 01:46:17;;;;;;;2.28;0.50;;;9.00;99.90;;;;;;5079876;28;20032;-77
2024/03/16 01:48:46;;;;;;;0.43;0.40;;;9.00;99.90;;;;;;5086367;28;20103;-77
2024/03/16 01:51:12;;;;;;;0.77;0.20;;;9.00;99.90;;;;;;5034959;28;20395;-77
2024/03/16 01:53:38;;;;;;;0.50;0.30;;;9.00;99.90;;;;;;5071497;28;20024;-78
2024/03/16 01:56:06;;;;;;;2.38;0.40;;;9.00;99.90;;;;;;5079292;28;20693;-77
2024/03/16 01:58:43;;;;;;;1.90;0.38;;;9.00;99.90;;;;;;5083585;28;20032;-77
2024/03/16 02:01:08;;;;;;;2.33;0.35;;;9.00;99.90;;;;;;5074325;28;20081;-77
2024/03/16 02:03:36;;;;;;;0.90;0.40;;;8.90;99.90;;;;;;5075343;28;20020;-77
2024/03/16 02:06:02;;;;;;;0.80;0.40;;;8.90;99.90;;;;;;5090751;28;20035;-77
2024/03/16 02:08:27;;;;;;;1.40;0.45;;;8.90;99.90;;;;;;5083066;28;20036;-77
2024/03/16 02:10:53;;;;;;;0.70;0.28;;;8.90;99.90;;;;;;5079809;28;20024;-77
2024/03/16 02:13:19;;;;;;;0.63;0.20;;;8.90;99.90;;;;;;5083351;28;20024;-77
2024/03/16 02:15:45;;;;;;;2.65;0.28;;;8.90;99.90;;;;;;5063125;28;20032;-77
2024/03/16 02:18:11;;;;;;;2.42;0.32;;;8.90;99.90;;;;;;5085613;28;20025;-77
2024/03/16 02:20:37;;;;;;;1.98;0.30;;;8.90;99.90;;;;;;5083291;28;20036;-77
2024/03/16 02:23:03;;;;;;;0.65;0.30;;;8.90;99.90;;;;;;5090430;28;20111;-77
2024/03/16 02:25:29;;;;;;;0.35;0.10;;;8.90;99.90;;;;;;5083753;28;20209;-77
2024/03/16 02:27:54;;;;;;;0.93;0.25;;;8.90;99.90;;;;;;5056031;28;20152;-77
2024/03/16 02:30:20;;;;;;;3.85;0.40;;;8.90;99.90;;;;;;5059128;28;20147;-77
2024/03/16 02:32:46;;;;;;;1.48;0.30;;;8.90;99.90;;;;;;5086672;28;20033;-77
2024/03/16 02:35:13;;;;;;;0.30;0.30;;;8.90;99.90;;;;;;5075170;28;20040;-77
2024/03/16 02:37:38;;;;;;;0.68;0.20;;;8.90;99.90;;;;;;5068651;28;20040;-77
2024/03/16 02:40:06;;;;;;;0.75;0.30;;;8.90;99.90;;;;;;5066404;28;20622;-77
2024/03/16 02:42:35;;;;;;;3.35;0.30;;;8.90;99.90;;;;;;5076237;28;20063;-78
2024/03/16 02:45:00;;;;;;;1.65;0.20;;;8.90;99.90;;;;;;5072050;28;20095;-78
2024/03/16 02:47:26;;;;;;;1.95;0.43;;;8.90;99.90;;;;;;5077779;28;20040;-78
2024/03/16 02:49:52;;;;;;;0.77;0.28;;;8.90;99.90;;;;;;5076705;28;20078;-78
2024/03/16 02:52:19;;;;;;;1.98;0.30;;;8.90;99.90;;;;;;5077388;28;20158;-78
2024/03/16 02:54:46;;;;;;;2.15;0.22;;;8.90;99.90;;;;;;5090459;28;20031;-78
2024/03/16 02:57:12;;;;;;;1.45;0.20;;;9.00;99.90;;;;;;5087100;28;20082;-77
2024/03/16 02:59:38;;;;;;;0.40;0.22;;;9.00;99.90;;;;;;5086644;28;20522;-78
2024/03/16 03:02:05;;;;;;;0.65;0.20;;;9.00;99.90;;;;;;5049709;28;20025;-78
2024/03/16 03:04:31;;;;;;;0.57;0.15;;;8.90;99.90;;;;;;5077787;28;20020;-81
2024/03/16 03:06:56;;;;;;;1.73;0.20;;;9.00;99.90;;;;;;5066203;28;20399;-78
2024/03/16 03:09:22;;;;;;;2.08;0.22;;;9.00;99.90;;;;;;5074355;28;20031;-77
2024/03/16 03:11:48;;;;;;;0.88;0.20;;;9.00;99.90;;;;;;5074426;28;20024;-77
2024/03/16 03:14:15;;;;;;;0.45;0.20;;;9.00;99.90;;;;;;5088181;28;20442;-77
2024/03/16 03:16:41;;;;;;;2.40;0.30;;;9.00;99.90;;;;;;5076842;28;20119;-77
2024/03/16 03:19:10;;;;;;;1.13;0.20;;;9.00;99.90;;;;;;5072210;28;20047;-77
2024/03/16 03:21:36;;;;;;;1.05;0.30;;;9.00;99.90;;;;;;5079876;28;20103;-77
2024/03/16 03:24:03;;;;;;;0.88;0.15;;;9.10;99.90;;;;;;5032456;28;20238;-77
2024/03/16 03:26:29;;;;;;;1.25;0.22;;;9.10;99.90;;;;;;5083854;28;20040;-78
2024/03/16 03:28:55;;;;;;;2.22;0.35;;;9.10;99.90;;;;;;5081277;28;20038;-77
2024/03/16 03:31:21;;;;;;;1.85;0.30;;;9.20;99.90;;;;;;5089579;28;20020;-77
2024/03/16 03:33:47;;;;;;;2.75;0.20;;;9.20;99.90;;;;;;5089373;28;20022;-78
2024/03/16 03:36:13;;;;;;;0.95;0.30;;;9.20;99.90;;;;;;5055083;28;20396;-78
2024/03/16 03:38:38;;;;;;;0.93;0.40;;;9.30;99.90;;;;;;5077010;28;20032;-77
2024/03/16 03:41:04;;;;;;;1.75;0.40;;;9.20;99.90;;;;;;5062905;28;20121;-77
2024/03/16 03:43:33;;;;;;;1.95;0.50;;;9.20;99.90;;;;;;5078016;28;20024;-78
2024/03/16 03:45:59;;;;;;;0.70;0.20;;;9.10;99.90;;;;;;5073154;28;20024;-77
2024/03/16 03:48:25;;;;;;;0.82;0.30;;;9.10;99.90;;;;;;5078281;28;20032;-78
2024/03/16 03:50:57;;;;;;;2.42;0.25;;;9.10;99.90;;;;;;5082907;28;20104;-78
2024/03/16 03:53:25;;;;;;;1.02;0.57;;;9.00;99.90;;;;;;5086337;28;20035;-77
2024/03/16 03:55:52;;;;;;;2.42;0.40;;;9.00;99.90;;;;;;5074913;28;20360;-77
2024/03/16 03:58:19;;;;;;;1.60;0.50;;;8.90;99.90;;;;;;5089254;28;20585;-77
2024/03/16 04:00:46;;;;;;;2.05;0.38;;;8.90;99.90;;;;;;5078878;28;20043;-77
2024/03/16 04:03:12;;;;;;;4.13;0.43;;;8.90;99.90;;;;;;5066520;28;20509;-77
2024/03/16 04:05:40;;;;;;;2.88;0.30;;;8.90;99.90;;;;;;5085905;28;20479;-77
2024/03/16 04:08:06;;;;;;;3.30;0.30;;;9.00;99.90;;;;;;5060666;28;20855;-76
2024/03/16 04:10:36;;;;;;;1.02;0.25;;;9.00;99.90;;;;;;5083765;28;20426;-77
2024/03/16 04:13:02;;;;;;;2.25;0.30;;;9.00;99.90;;;;;;5062775;28;20297;-77
2024/03/16 04:15:29;;;;;;;3.53;0.40;;;9.00;99.90;;;;;;5083590;28;20040;-77
2024/03/16 04:17:55;;;;;;;0.52;0.20;;;9.00;99.90;;;;;;5080569;28;20032;-76
2024/03/16 04:20:21;;;;;;;0.90;0.22;;;8.90;99.90;;;;;;5082880;28;20056;-76
2024/03/16 04:22:48;;;;;;;0.98;0.38;;;8.80;99.90;;;;;;5046016;28;20040;-77
2024/03/16 04:25:14;;;;;;;0.95;0.28;;;8.80;99.90;;;;;;5060668;28;20024;-76
2024/03/16 04:27:43;;;;;;;1.85;0.30;;;8.80;99.90;;;;;;5025557;28;20037;-77
2024/03/16 04:30:10;;;;;;;0.47;0.20;;;8.70;99.90;;;;;;5081718;28;20019;-76
2024/03/16 04:32:37;;;;;;;0.38;0.30;;;8.80;99.90;;;;;;5086647;28;20057;-76
2024/03/16 04:35:04;;;;;;;2.03;0.40;;;8.70;99.90;;;;;;5072832;28;20695;-76
2024/03/16 04:37:31;;;;;;;2.22;0.50;;;8.70;99.90;;;;;;5072830;28;20020;-75
2024/03/16 04:39:56;;;;;;;1.42;0.40;;;8.80;99.90;;;;;;5095413;28;20103;-74
2024/03/16 04:42:23;;;;;;;3.17;0.40;;;8.80;99.90;;;;;;5084597;28;20100;-75
2024/03/16 04:44:49;;;;;;;1.20;0.47;;;8.80;99.90;;;;;;5073717;28;20475;-74
2024/03/16 04:47:15;;;;;;;4.05;1.15;;;8.70;99.90;;;;;;5088016;28;20071;-74
2024/03/16 04:49:41;;;;;;;6.07;2.78;;;8.70;99.90;;;;;;5084615;28;20028;-76
2024/03/16 04:52:10;;;;;;;7.45;2.55;;;8.70;99.90;;;;;;5094453;28;20089;-75
2024/03/16 04:54:35;;;;;;;6.53;1.80;;;8.60;99.90;;;;;;5095501;28;20020;-75
2024/03/16 04:57:02;;;;;;;4.80;1.10;;;8.60;99.90;;;;;;5092496;28;20200;-76
2024/03/16 04:59:29;;;;;;;3.63;0.90;;;8.50;99.90;;;;;;5077356;28;20031;-75
2024/03/16 05:01:55;;;;;;;3.72;0.77;;;8.50;99.90;;;;;;5081066;28;20031;-76
2024/03/16 05:04:21;;;;;;;2.70;1.00;;;8.50;99.90;;;;;;5099501;28;20032;-75
2024/03/16 05:06:47;;;;;;;3.38;0.70;;;8.50;99.90;;;;;;5081021;28;20036;-75
2024/03/16 05:09:13;;;;;;;2.50;0.50;;;8.40;99.90;;;;;;5102580;28;20083;-76
2024/03/16 05:11:39;;;;;;;2.80;0.50;;;8.40;99.90;;;;;;5084632;28;20048;-76
2024/03/16 05:14:09;;;;;;;2.33;0.47;;;8.50;99.90;;;;;;5117736;28;20111;-75
2024/03/16 05:16:36;;;;;;;2.05;0.70;;;8.40;99.90;;;;;;5101694;28;20028;-76
2024/03/16 05:19:04;;;;;;;2.35;0.93;;;8.40;99.90;;;;;;5085636;28;20219;-76
2024/03/16 05:21:30;;;;;;;0.45;0.38;;;8.30;99.90;;;;;;5082688;28;20091;-76
2024/03/16 05:23:56;;;;;;;2.03;0.30;;;8.30;99.90;;;;;;5077144;28;20475;-76
2024/03/16 05:26:22;;;;;;;5.80;0.85;;;8.30;99.90;;;;;;5076892;28;20066;-76
2024/03/16 05:28:48;;;;;;;1.80;0.47;;;8.30;99.90;;;;;;5073796;28;20052;-78
2024/03/16 05:31:14;;;;;;;2.20;0.57;;;8.20;99.90;;;;;;5088885;28;20043;-77
2024/03/16 05:33:40;;;;;;;0.40;0.17;;;8.30;99.90;;;;;;5088834;28;20028;-77
2024/03/16 05:36:06;;;;;;;1.40;0.30;;;8.30;99.90;;;;;;5089359;28;20037;-77
2024/03/16 05:38:32;;;;;;;1.55;0.20;;;8.40;99.90;;;;;;5086981;28;20039;-76
2024/03/16 05:41:00;;;;;;;1.92;0.28;;;8.40;99.90;;;;;;5084043;28;20032;-79
2024/03/16 05:43:25;;;;;;;4.70;0.35;;;8.40;99.90;;;;;;5105350;28;20020;-80
2024/03/16 05:45:51;;;;;;;2.53;0.30;;;8.40;99.90;;;;;;5070011;28;20093;-79
2024/03/16 05:48:19;;;;;;;1.95;0.50;;;8.40;99.90;;;;;;5074264;28;20101;-77
2024/03/16 05:50:45;;;;;;;3.17;0.40;;;8.50;99.90;;;;;;5064753;28;20078;-78
2024/03/16 05:53:14;;;;;;;4.47;1.17;;;8.50;99.90;;;;;;5078228;28;20027;-77
2024/03/16 05:55:41;;;;;;;1.92;0.40;;;8.60;99.90;;;;;;5052722;28;20050;-77
2024/03/16 05:58:12;;;;;;;1.20;0.20;;;8.70;99.90;;;;;;5052019;28;20040;-77
2024/03/16 06:00:39;;;;;;;0.98;0.22;;;8.80;99.90;;;;;;5067455;28;20017;-77
2024/03/16 06:03:06;;;;;;;1.17;0.20;;;8.90;99.90;;;;;;5072141;28;20036;-76
2024/03/16 06:05:40;;;;;;;2.90;0.50;;;8.90;99.90;;;;;;5064059;28;20031;-74
2024/03/16 06:08:07;;;;;;;2.15;0.25;;;8.90;99.90;;;;;;5056472;28;20568;-74
2024/03/16 06:10:34;;;;;;;1.85;0.30;;;9.00;99.90;;;;;;5069002;28;20029;-74
2024/03/16 06:13:01;;;;;;;1.90;0.40;;;9.00;99.90;;;;;;5060260;28;20031;-73
2024/03/16 06:15:26;;;;;;;1.55;0.32;;;9.10;99.90;;;;;;5082223;28;20040;-74
2024/03/16 06:17:52;;;;;;;1.95;0.30;;;9.10;99.90;;;;;;5026775;28;20515;-73
2024/03/16 06:20:18;;;;;;;0.98;0.32;;;9.20;99.90;;;;;;5067677;28;20118;-74
2024/03/16 06:22:45;;;;;;;0.32;0.20;;;9.20;99.90;;;;;;5068694;28;20025;-73
2024/03/16 06:25:12;;;;;;;3.45;0.60;;;9.30;99.90;;;;;;5054943;28;20404;-74
2024/03/16 06:28:16;;;;;;;3.97;0.65;;;9.30;99.90;;;;;;5074094;28;20828;-73
2024/03/16 06:30:33;;;;;;;4.47;0.95;;;9.30;99.90;;;;;;5089698;28;20334;-73
2024/03/16 06:33:11;;;;;;;1.17;0.38;;;9.40;99.90;;;;;;5081436;28;20298;-72
2024/03/16 06:35:41;;;;;;;3.42;0.55;;;9.40;99.90;;;;;;5040707;28;20052;-71
2024/03/16 06:38:10;;;;;;;;;;;9.40;99.90;;;;;;5088456;28;20107;-72
2024/03/16 06:40:35;;;;;;;2.83;0.30;;;9.40;99.90;;;;;;5088917;28;19912;-74
2024/03/16 06:43:01;;;;;;;2.80;0.40;;;9.40;99.90;;;;;;5068290;28;20031;-73
2024/03/16 06:45:35;;;;;;;0.55;0.30;;;9.40;99.90;;;;;;5085874;28;20042;-73
2024/03/16 06:48:00;;;;;;;2.30;0.43;;;9.50;99.90;;;;;;5088109;28;20043;-73
2024/03/16 06:50:27;;;;;;;1.63;0.50;;;9.50;99.90;;;;;;5081858;28;20090;-71
2024/03/16 06:52:53;;;;;;;1.05;0.50;;;9.60;99.90;;;;;;5085614;28;20028;-71
2024/03/16 06:55:19;;;;;;;3.33;0.60;;;9.70;99.90;;;;;;5093785;28;20104;-72
2024/03/16 06:57:45;;;;;;;1.65;0.40;;;9.80;99.90;;;;;;5087606;28;20107;-72
2024/03/16 07:00:14;;;;;;;3.92;0.45;;;9.90;99.90;;;;;;5082887;28;20724;-73
2024/03/16 07:02:41;;;;;;;1.45;0.43;;;9.90;99.90;;;;;;5090214;28;20020;-73
2024/03/16 07:05:11;;;;;;;4.35;0.50;;;9.90;99.90;;;;;;5090370;28;20097;-74
2024/03/16 07:07:36;;;;;;;3.50;0.45;;;9.80;99.90;;;;;;5071183;28;20097;-73
2024/03/16 07:10:05;;;;;;;2.13;0.40;;;9.60;99.90;;;;;;5084812;28;20032;-74
2024/03/16 07:12:33;;;;;;;1.48;0.30;;;9.50;99.90;;;;;;5088011;28;20153;-72
2024/03/16 07:14:58;;;;;;;2.63;0.50;;;9.40;99.90;;;;;;5060320;28;20044;-73
2024/03/16 07:17:26;;;;;;;2.65;0.50;;;9.30;99.90;;;;;;5070521;28;20027;-73
2024/03/16 07:19:53;;;;;;;1.63;0.40;;;9.30;99.90;;;;;;5083069;28;20024;-73
2024/03/16 07:22:20;;;;;;;2.53;0.70;;;9.40;99.90;;;;;;5064919;28;20441;-71
2024/03/16 07:24:46;;;;;;;4.28;0.77;;;9.40;99.90;;;;;;5067459;28;20115;-70
2024/03/16 07:27:12;;;;;;;1.45;0.65;;;9.50;99.90;;;;;;5061081;28;20055;-71
2024/03/16 07:29:38;;;;;;;1.77;0.60;;;9.60;99.90;;;;;;5047814;28;20123;-72
2024/03/16 07:32:05;;;;;;;3.67;0.60;;;9.60;99.90;;;;;;5068027;28;20096;-73
2024/03/16 07:34:33;;;;;;;2.30;0.80;;;9.60;99.90;;;;;;5047302;28;20527;-72
2024/03/16 07:36:59;;;;;;;1.50;0.55;;;9.60;99.90;;;;;;5059358;28;20551;-72
2024/03/16 07:39:25;;;;;;;3.03;0.47;;;9.70;99.90;;;;;;5071142;28;20035;-74
2024/03/16 07:41:51;;;;;;;3.47;0.43;;;9.70;99.90;;;;;;5067107;28;20053;-73
2024/03/16 07:44:16;;;;;;;2.78;0.60;;;9.70;99.90;;;;;;5067517;28;20060;-72
2024/03/16 07:46:46;;;;;;;2.25;0.50;;;9.70;99.90;;;;;;5068162;28;20396;-71
2024/03/16 07:49:13;;;;;;;1.70;0.60;;;9.70;99.90;;;;;;5061426;28;20028;-72
2024/03/16 07:51:39;;;;;;;2.65;0.90;;;9.60;99.90;;;;;;5068485;28;20107;-72
2024/03/16 07:54:08;;;;;;;3.33;1.15;;;9.60;99.90;;;;;;5053584;28;20115;-74
2024/03/16 07:56:34;;;;;;;2.67;1.00;;;9.60;99.90;;;;;;5068446;28;20024;-72
2024/03/16 07:59:00;;;;;;;4.28;0.80;;;9.60;99.90;;;;;;5065874;28;20274;-74
2024/03/16 08:01:27;;;;;;;1.80;0.82;;;9.60;99.90;;;;;;5067290;28;20028;-74
2024/03/16 08:03:53;;;;;;;4.53;1.45;;;9.60;99.90;;;;;;5058807;28;20549;-72
2024/03/16 08:06:19;;;;;;;7.32;0.90;;;9.60;99.90;;;;;;5067679;28;20028;-72
2024/03/16 08:08:45;;;;;;;5.22;1.13;;;9.70;99.90;;;;;;5046034;28;20136;-72
2024/03/16 08:11:12;;;;;;;3.38;0.90;;;9.90;99.90;;;;;;5073907;28;20032;-72
2024/03/16 08:13:40;;;;;;;2.38;0.90;;;9.90;99.90;;;;;;5065992;28;20056;-73
2024/03/16 08:16:06;;;;;;;4.70;1.00;;;9.90;99.90;;;;;;5062702;28;20825;-72
2024/03/16 08:18:39;;;;;;;2.75;1.10;;;10.00;99.90;;;;;;5070681;28;20103;-72
2024/03/16 08:21:07;;;;;;;5.05;1.27;;;10.00;99.90;;;;;;5066859;28;20689;-73
2024/03/16 08:23:32;;;;;;;3.55;1.10;;;10.10;99.90;;;;;;5069103;28;20032;-71
2024/03/16 08:26:00;;;;;;;2.35;1.10;;;10.00;99.90;;;;;;5068014;28;20021;-71
2024/03/16 08:28:27;;;;;;;3.75;0.80;;;10.00;99.90;;;;;;5064272;28;20040;-73
2024/03/16 08:30:53;;;;;;;3.95;0.93;;;10.00;99.90;;;;;;5046468;28;20041;-72
2024/03/16 08:33:20;;;;;;;3.03;0.70;;;10.00;99.90;;;;;;5068393;28;20445;-71
2024/03/16 08:35:46;;;;;;;1.73;0.50;;;10.10;99.90;;;;;;5065781;28;20051;-71
2024/03/16 08:38:14;;;;;;;2.80;0.60;;;10.20;99.90;;;;;;5069409;28;20514;-70
2024/03/16 08:40:41;;;;;;;2.30;0.68;;;10.30;99.90;;;;;;5069642;28;20044;-71
2024/03/16 08:43:08;;;;;;;4.15;0.93;;;10.50;99.90;;;;;;5068505;28;20790;-71
2024/03/16 08:45:37;;;;;;;3.72;0.77;;;10.60;99.90;;;;;;5067802;28;20082;-72
2024/03/16 08:48:04;;;;;;;2.30;0.80;;;10.70;99.90;;;;;;5064983;28;20039;-69
2024/03/16 08:50:32;;;;;;;3.10;0.60;;;10.80;99.90;;;;;;5057673;28;20040;-72
2024/03/16 08:52:58;;;;;;;1.45;0.70;;;10.80;99.90;;;;;;5080107;28;20459;-71
2024/03/16 08:55:25;;;;;;;1.45;0.40;;;11.00;99.90;;;;;;5068273;28;20031;-71
2024/03/16 08:57:51;;;;;;;3.03;1.27;;;11.10;99.90;;;;;;5063805;28;20040;-71
2024/03/16 09:00:17;;;;;;;2.22;0.70;;;11.20;99.90;;;;;;5058814;28;20064;-71
2024/03/16 09:02:43;;;;;;;1.65;0.40;;;11.20;99.90;;;;;;5067676;28;20495;-68
2024/03/16 09:05:10;;;;;;;2.40;0.50;;;11.30;99.90;;;;;;5068146;28;20056;-74
2024/03/16 09:07:39;;;;;;;1.67;0.60;;;11.50;99.90;;;;;;5066807;28;20029;-75
2024/03/16 09:10:06;;;;;;;1.35;0.50;;;11.80;99.90;;;;;;5016637;28;20033;-76
2024/03/16 09:12:38;;;;;;;0.55;0.30;;;12.10;99.90;;;;;;5083793;28;20050;-73
2024/03/16 09:15:12;;;;;;;1.25;0.35;;;12.20;99.90;;;;;;5068585;28;20032;-76
2024/03/16 09:17:39;;;;;;;0.98;0.50;;;12.20;99.90;;;;;;5017272;28;20463;-75
2024/03/16 09:20:07;;;;;;;0.95;0.38;;;12.20;99.90;;;;;;5045265;28;20112;-72
2024/03/16 09:22:34;;;;;;;0.85;0.20;;;12.20;99.90;;;;;;5059956;28;20423;-73
2024/03/16 09:25:05;;;;;;;1.55;0.30;;;12.20;99.90;;;;;;5065292;28;20383;-73
2024/03/16 09:27:33;;;;;;;1.77;0.47;;;12.30;99.90;;;;;;5053768;28;20619;-73
2024/03/16 09:29:59;;;;;;;0.45;0.30;;;12.50;99.90;;;;;;5074382;28;20044;-72
2024/03/16 09:32:25;;;;;;;2.72;0.47;;;12.60;99.90;;;;;;5070117;28;20032;-73
2024/03/16 09:34:51;;;;;;;0.98;0.40;;;12.60;99.90;;;;;;5062583;28;20050;-74
2024/03/16 09:37:17;;;;;;;2.75;0.85;;;12.50;99.90;;;;;;5069152;28;20403;-70
2024/03/16 09:39:43;;;;;;;1.00;0.50;;;12.50;99.90;;;;;;5064898;28;20025;-71
2024/03/16 09:42:10;;;;;;;0.65;0.28;;;12.60;99.90;;;;;;5064365;28;20036;-72
2024/03/16 09:44:35;;;;;;;2.10;0.65;;;12.80;99.90;;;;;;5056763;28;20078;-72
2024/03/16 09:47:07;;;;;;;2.58;0.60;;;12.90;99.90;;;;;;5068177;28;20021;-72
2024/03/16 09:49:36;;;;;;;3.85;0.60;;;13.00;99.90;;;;;;5067973;28;20086;-72
2024/03/16 09:52:05;;;;;;;1.08;0.30;;;13.10;99.90;;;;;;5068044;28;20024;-72
2024/03/16 09:54:37;;;;;;;2.22;0.30;;;13.20;99.90;;;;;;5070921;28;20033;-72
2024/03/16 09:57:05;;;;;;;2.55;0.35;;;13.10;99.90;;;;;;5033194;28;20036;-72
2024/03/16 09:59:31;;;;;;;4.43;0.55;;;13.10;99.90;;;;;;5068069;28;20029;-72
2024/03/16 10:01:59;;;;;;;0.63;0.50;;;13.10;99.90;;;;;;5068231;28;20152;-72
2024/03/16 10:04:27;;;;;;;0.40;0.28;;;13.10;99.90;;;;;;5069003;28;20103;-72
2024/03/16 10:06:54;;;;;;;1.45;0.30;;;13.30;99.90;;;;;;5062806;28;20021;-71
2024/03/16 10:09:23;;;;;;;1.00;0.28;;;13.50;99.90;;;;;;5069663;28;20119;-72
2024/03/16 10:11:49;;;;;;;0.75;0.30;;;13.60;99.90;;;;;;5065173;28;20107;-72
2024/03/16 10:14:15;;;;;;;0.93;0.30;;;13.70;99.90;;;;;;5052633;28;20135;-72
2024/03/16 10:16:40;;;;;;;0.75;0.32;;;13.50;99.90;;;;;;5062025;28;20107;-72
2024/03/16 10:19:07;;;;;;;3.10;0.52;;;13.50;99.90;;;;;;5066107;28;20028;-72
2024/03/16 10:21:33;;;;;;;1.08;0.45;;;13.40;99.90;;;;;;5066135;28;20073;-72
2024/03/16 10:23:59;;;;;;;0.65;0.38;;;13.50;99.90;;;;;;5068340;28;20103;-71
2024/03/16 10:26:32;;;;;;;2.60;0.20;;;13.60;99.90;;;;;;5043053;28;20044;-72
2024/03/16 10:28:59;;;;;;;2.13;0.45;;;13.60;99.90;;;;;;5061125;28;20071;-71
2024/03/16 10:31:31;;;;;;;0.95;0.38;;;13.60;99.90;;;;;;5069285;28;20396;-72
2024/03/16 10:34:00;;;;;;;0.85;0.20;;;13.60;99.90;;;;;;5056172;28;20020;-71
2024/03/16 10:36:29;;;;;;;1.58;0.30;;;13.50;99.90;;;;;;5055202;28;20036;-71
2024/03/16 10:38:55;;;;;;;0.77;0.20;;;13.50;99.90;;;;;;5043613;28;20029;-73
2024/03/16 10:41:23;;;;;;;0.43;0.20;;;13.70;99.90;;;;;;5045311;28;20123;-73
2024/03/16 10:43:52;;;;;;;0.65;0.22;;;13.90;99.90;;;;;;5072073;28;20016;-73
2024/03/16 10:46:19;;;;;;;0.87;0.20;;;14.10;99.90;;;;;;5067602;28;20033;-73
2024/03/16 10:48:46;;;;;;;0.70;0.30;;;14.30;99.90;;;;;;5066596;28;20012;-72
2024/03/16 10:51:17;;;;;;;0.68;0.40;;;14.30;99.90;;;;;;5059186;28;20075;-70
2024/03/16 10:53:46;;;;;;;0.55;0.10;;;14.40;99.90;;;;;;5062462;28;20100;-71
2024/03/16 10:56:19;;;;;;;0.68;0.40;;;14.40;99.90;;;;;;5064799;28;20024;-72
2024/03/16 10:58:45;;;;;;;0.65;0.15;;;14.40;99.90;;;;;;5070058;28;20053;-73
2024/03/16 11:01:18;;;;;;;0.20;0.20;;;14.30;99.90;;;;;;5063377;28;20462;-73
2024/03/16 11:03:44;;;;;;;0.47;0.20;;;14.20;99.90;;;;;;5041175;28;20032;-72
2024/03/16 11:06:21;;;;;;;0.75;0.20;;;14.10;99.90;;;;;;5060699;28;20517;-72
2024/03/16 11:08:52;;;;;;;0.17;0.17;;;14.20;99.90;;;;;;5050096;28;20413;-73
2024/03/16 11:11:26;;;;;;;1.08;0.50;;;14.20;99.90;;;;;;5037832;28;20070;-73
2024/03/16 11:13:55;;;;;;;0.93;0.30;;;14.10;99.90;;;;;;5037214;28;20041;-72
2024/03/16 11:16:32;;;;;;;1.70;0.10;;;14.20;99.90;;;;;;5060132;28;20040;-71
2024/03/16 11:19:07;;;;;;;0.38;0.05;;;14.20;99.90;;;;;;5057796;28;20033;-72
2024/03/16 11:21:36;;;;;;;1.38;0.30;;;14.30;99.90;;;;;;5061143;28;20044;-71
2024/03/16 11:24:09;;;;;;;1.00;0.30;;;14.40;99.90;;;;;;5067082;28;20086;-73
2024/03/16 11:26:37;;;;;;;1.48;0.30;;;14.40;99.90;;;;;;5059153;28;20029;-72
2024/03/16 11:29:14;;;;;;;0.63;0.20;;;14.40;99.90;;;;;;5071349;28;20040;-72
2024/03/16 11:31:40;;;;;;;0.20;0.20;;;14.50;99.90;;;;;;5059188;28;20052;-73
2024/03/16 11:34:08;;;;;;;1.80;0.40;;;14.60;99.90;;;;;;5077488;28;20089;-70
2024/03/16 11:36:44;;;;;;;0.82;0.30;;;15.00;99.90;;;;;;5063943;28;20111;-70
2024/03/16 11:39:11;;;;;;;2.08;0.20;;;15.40;99.90;;;;;;5087696;28;20056;-70
2024/03/16 11:41:44;;;;;;;1.60;0.20;;;15.60;99.90;;;;;;5089322;28;20050;-72
2024/03/16 11:44:30;;;;;;;0.32;0.28;;;15.60;99.90;;;;;;5060636;28;20101;-72
2024/03/16 11:46:57;;;;;;;0.55;0.55;;;15.70;99.90;;;;;;5071177;28;20450;-71
2024/03/16 11:49:24;;;;;;;0.20;0.20;;;15.90;99.90;;;;;;5070532;28;20089;-72
2024/03/16 11:51:55;;;;;;;0.55;0.25;;;15.60;99.90;;;;;;5082602;28;20024;-69
2024/03/16 11:54:37;;;;;;;0.20;0.20;;;15.50;99.90;;;;;;5091471;28;20111;-70
2024/03/16 11:57:03;;;;;;;0.20;0.20;;;15.20;99.90;;;;;;5072414;28;20049;-70
2024/03/16 11:59:29;;;;;;;0.70;0.28;;;15.10;99.90;;;;;;5075350;28;20020;-70
2024/03/16 12:01:56;;;;;;;0.10;0.10;;;15.40;99.90;;;;;;5089855;28;20031;-71
2024/03/16 12:04:27;;;;;;;0.20;0.20;;;15.50;99.90;;;;;;5083976;28;20895;-71
2024/03/16 12:06:56;;;;;;;0.35;0.30;;;15.80;99.90;;;;;;5080738;28;20035;-71
2024/03/16 12:09:31;;;;;;;0.87;0.13;;;16.00;99.90;;;;;;5075809;28;20047;-70
2024/03/16 12:11:58;;;;;;;0.20;0.20;;;16.20;99.90;;;;;;5060084;28;20024;-71
2024/03/16 12:14:24;;;;;;;1.02;0.22;;;16.30;99.90;;;;;;5078832;28;20432;-70
2024/03/16 12:17:10;;;;;;;1.02;0.30;;;16.50;99.90;;;;;;5073983;28;20056;-70
2024/03/16 12:19:37;;;;;;;1.00;0.40;;;16.90;99.90;;;;;;5064421;28;20405;-70
2024/03/16 12:22:04;;;;;;;0.88;0.30;;;17.10;99.90;;;;;;5084555;28;20046;-71
2024/03/16 12:24:31;;;;;;;0.28;0.28;;;17.30;99.90;;;;;;5074217;28;20112;-72
2024/03/16 12:26:57;;;;;;;0.10;0.10;;;16.90;99.90;;;;;;5087429;28;20058;-70
2024/03/16 12:29:23;;;;;;;3.65;0.40;;;16.70;99.90;;;;;;5085241;28;20020;-71
2024/03/16 12:31:57;;;;;;;0.20;0.20;;;16.60;99.90;;;;;;5085986;28;20075;-71
2024/03/16 12:34:25;;;;;;;0.63;0.32;;;16.40;99.90;;;;;;5070961;28;20016;-72
2024/03/16 12:36:51;;;;;;;1.00;0.40;;;16.30;99.90;;;;;;5075150;28;20536;-71
2024/03/16 12:39:17;;;;;;;0.30;0.30;;;16.10;99.90;;;;;;5051616;28;20036;-71
2024/03/16 12:41:52;;;;;;;0.60;0.40;;;16.20;99.90;;;;;;5084391;28;20387;-71
2024/03/16 12:44:17;;;;;;;2.20;0.55;;;16.20;99.90;;;;;;5058660;28;20043;-71
2024/03/16 12:46:46;;;;;;;0.30;0.20;;;16.00;99.90;;;;;;5085963;28;20028;-68
2024/03/16 12:49:12;;;;;;;0.73;0.40;;;15.50;99.90;;;;;;5082923;28;20067;-70
2024/03/16 12:51:38;;;;;;;0.50;0.30;;;15.30;99.90;;;;;;5058124;28;20487;-70
2024/03/16 12:54:07;;;;;;;0.35;0.35;;;15.20;99.90;;;;;;5058683;28;20090;-70